Time;durP1;ratioP1;P1;durP2;ratioP2;P2;SDS_P1;SDS_P2;PMS_P1;PMS_P2;Temp;Humidity;BMP_temperature;BMP_pressure;BME280_temperature;BME280_humidity;BME280_pressure;Samples;Min_cycle;Max_cycle;Signal;HPM_P1;HPM_P2
2023/05/29 00:03:06;;;;;;;;;;;;;;;21.58;44.19;95644.44;10496097;28;1935;-67
2023/05/29 00:08:06;;;;;;;;;;;;;;;21.58;44.08;95633.09;10496916;28;2051;-66
2023/05/29 00:13:06;;;;;;;;;;;;;;;21.58;44.14;95633.09;10485270;28;1918;-68
2023/05/29 00:18:07;;;;;;;;;;;;;;;21.56;44.28;95628.13;10490150;28;2197;-66
2023/05/29 00:23:07;;;;;;;;;;;;;;;21.57;44.12;95639.47;10488268;28;1945;-67
2023/05/29 00:28:08;;;;;;;;;;;;;;;21.57;44.38;95631.53;10487673;28;4402;-66
2023/05/29 00:33:09;;;;;;;;;;;;;;;21.57;44.20;95624.41;10493808;28;2108;-67
2023/05/29 00:38:09;;;;;;;;;;;;;;;21.57;44.08;95628.91;10484071;28;1929;-67
2023/05/29 00:43:09;;;;;;;;;;;;;;;21.56;44.08;95622.84;10487503;28;1986;-66
2023/05/29 00:48:09;;;;;;;;;;;;;;;21.56;44.08;95624.69;10487608;28;2013;-67
2023/05/29 00:53:10;;;;;;;;;;;;;;;21.56;44.35;95625.47;10485588;28;1973;-66
2023/05/29 00:58:10;;;;;;;;;;;;;;;21.57;44.05;95623.63;10484642;28;2029;-66
2023/05/29 01:03:10;;;;;;;;;;;;;;;21.56;44.07;95624.69;10491558;28;1994;-65
2023/05/29 01:08:11;;;;;;;;;;;;;;;21.56;44.19;95627.31;10491681;28;2063;-64
2023/05/29 01:13:18;;;;;;;;;;;;;;;21.57;44.27;95631.53;10490134;28;2407;-67
2023/05/29 01:18:27;;;;;;;;;;;;;;;21.55;44.00;95631.84;10489265;28;1962;-69
2023/05/29 01:23:46;;;;;;;;;;;;;;;21.56;44.13;95629.97;10486285;28;2038;-68
2023/05/29 01:28:47;;;;;;;;;;;;;;;21.55;44.05;95628.41;10486117;28;4445;-66
2023/05/29 01:33:54;;;;;;;;;;;;;;;21.55;44.08;95631.84;10486610;28;1982;-68
2023/05/29 01:38:55;;;;;;;;;;;;;;;21.55;44.03;95633.69;10490034;28;1950;-67
2023/05/29 01:43:55;;;;;;;;;;;;;;;21.55;44.02;95634.47;10492560;28;1951;-68
2023/05/29 01:48:56;;;;;;;;;;;;;;;21.54;43.94;95630.25;10493576;28;1980;-65
2023/05/29 01:53:56;;;;;;;;;;;;;;;21.54;43.95;95632.09;10494328;28;1980;-67
2023/05/29 01:58:56;;;;;;;;;;;;;;;21.53;43.94;95626.06;10486316;28;2072;-66
2023/05/29 02:03:56;;;;;;;;;;;;;;;21.54;43.74;95629.47;10485147;28;1966;-68
2023/05/29 02:08:57;;;;;;;;;;;;;;;21.54;43.93;95626.81;10486764;28;1987;-66
2023/05/29 02:13:57;;;;;;;;;;;;;;;21.54;44.01;95626.81;10484862;28;2407;-67
2023/05/29 02:18:57;;;;;;;;;;;;;;;21.53;43.92;95625.25;10489571;28;2036;-66
2023/05/29 02:23:57;;;;;;;;;;;;;;;21.52;43.89;95621.84;10484402;28;1970;-67
2023/05/29 02:28:58;;;;;;;;;;;;;;;21.53;44.10;95628.69;10493826;28;4414;-67
2023/05/29 02:33:58;;;;;;;;;;;;;;;21.54;43.94;95622.34;10499867;28;1958;-67
2023/05/29 02:38:58;;;;;;;;;;;;;;;21.52;43.71;95624.47;10491444;28;1995;-68
2023/05/29 02:43:59;;;;;;;;;;;;;;;21.53;43.87;95625.25;10495093;28;1950;-67
2023/05/29 02:48:59;;;;;;;;;;;;;;;21.52;43.90;95626.31;10492664;28;2061;-67
2023/05/29 02:54:00;;;;;;;;;;;;;;;21.53;43.83;95620.00;10492091;28;1969;-68
2023/05/29 02:59:00;;;;;;;;;;;;;;;21.53;43.95;95627.91;10491172;28;2272;-67
2023/05/29 03:04:00;;;;;;;;;;;;;;;21.52;43.72;95618.41;10494156;28;1961;-68
2023/05/29 03:09:01;;;;;;;;;;;;;;;21.52;43.88;95631.59;10493318;28;2265;-67
2023/05/29 03:14:01;;;;;;;;;;;;;;;21.51;43.80;95628.19;10491966;28;1921;-67
2023/05/29 03:19:01;;;;;;;;;;;;;;;21.51;43.63;95627.41;10492576;28;1974;-67
2023/05/29 03:24:05;;;;;;;;;;;;;;;21.52;44.04;95628.94;10491939;28;1946;-68
2023/05/29 03:29:05;;;;;;;;;;;;;;;21.51;43.95;95630.03;10489811;28;4429;-67
2023/05/29 03:34:05;;;;;;;;;;;;;;;21.51;43.71;95632.69;10492067;28;1973;-67
2023/05/29 03:39:06;;;;;;;;;;;;;;;21.51;43.63;95637.94;10486540;28;2216;-67
2023/05/29 03:44:06;;;;;;;;;;;;;;;21.51;43.81;95644.00;10488557;28;2076;-68
2023/05/29 03:49:07;;;;;;;;;;;;;;;21.51;43.75;95651.13;10490361;28;1954;-67
2023/05/29 03:54:07;;;;;;;;;;;;;;;21.50;43.79;95652.97;10495151;28;1918;-67
2023/05/29 03:59:07;;;;;;;;;;;;;;;21.50;43.54;95652.19;10491923;28;1959;-66
2023/05/29 04:04:08;;;;;;;;;;;;;;;21.50;43.77;95647.72;10490482;28;2300;-67
2023/05/29 04:09:08;;;;;;;;;;;;;;;21.50;43.43;95647.72;10497213;28;1946;-67
2023/05/29 04:14:08;;;;;;;;;;;;;;;21.49;43.66;95659.34;10491160;28;2016;-67
2023/05/29 04:19:09;;;;;;;;;;;;;;;21.49;43.60;95667.25;10491270;28;1974;-68
2023/05/29 04:24:09;;;;;;;;;;;;;;;21.49;43.69;95677.78;10488544;28;2071;-68
2023/05/29 04:29:09;;;;;;;;;;;;;;;21.50;43.42;95673.28;10489881;28;4450;-67
2023/05/29 04:34:10;;;;;;;;;;;;;;;21.49;43.76;95677.00;10491505;28;1964;-67
2023/05/29 04:39:10;;;;;;;;;;;;;;;21.49;43.51;95683.06;10490161;28;1898;-66
2023/05/29 04:44:11;;;;;;;;;;;;;;;21.50;43.68;95691.75;10487675;28;2090;-67
2023/05/29 04:49:12;;;;;;;;;;;;;;;21.50;43.80;95691.75;10486863;28;1908;-67
2023/05/29 04:54:13;;;;;;;;;;;;;;;21.49;43.64;95696.25;10491375;28;2029;-67
2023/05/29 04:59:13;;;;;;;;;;;;;;;21.49;43.67;95693.63;10484702;28;2283;-67
2023/05/29 05:04:13;;;;;;;;;;;;;;;21.49;43.92;95698.91;10486096;28;1993;-67
2023/05/29 05:09:13;;;;;;;;;;;;;;;21.50;43.74;95702.28;10489625;28;2017;-67
2023/05/29 05:14:14;;;;;;;;;;;;;;;21.49;43.87;95698.09;10491885;28;1910;-66
2023/05/29 05:19:14;;;;;;;;;;;;;;;21.49;43.89;95698.09;10487475;28;2034;-68
2023/05/29 05:24:14;;;;;;;;;;;;;;;21.50;43.54;95710.22;10483038;28;1989;-67
2023/05/29 05:29:14;;;;;;;;;;;;;;;21.49;43.58;95706.81;10484583;28;4603;-67
2023/05/29 05:34:15;;;;;;;;;;;;;;;21.49;43.89;95706.81;10484549;28;2066;-67
2023/05/29 05:39:15;;;;;;;;;;;;;;;21.50;43.98;95710.22;10483547;28;2319;-67
2023/05/29 05:44:15;;;;;;;;;;;;;;;21.50;44.04;95713.63;10488844;28;1935;-67
2023/05/29 05:49:15;;;;;;;;;;;;;;;21.49;43.98;95713.94;10482651;28;1970;-67
2023/05/29 05:54:16;;;;;;;;;;;;;;;21.50;44.10;95721.56;10488284;28;2555;-68
2023/05/29 05:59:16;;;;;;;;;;;;;;;21.50;43.89;95729.47;10487924;28;1903;-68
2023/05/29 06:04:17;;;;;;;;;;;;;;;21.51;44.12;95730.25;10493344;28;1989;-67
2023/05/29 06:09:17;;;;;;;;;;;;;;;21.51;44.31;95732.91;10494328;28;2774;-66
2023/05/29 06:14:17;;;;;;;;;;;;;;;21.51;44.18;95733.69;10496434;28;1930;-67
2023/05/29 06:19:17;;;;;;;;;;;;;;;21.51;44.19;95735.53;10495962;28;2229;-68
2023/05/29 06:24:18;;;;;;;;;;;;;;;21.52;44.18;95718.63;10494736;28;1887;-66
2023/05/29 06:29:18;;;;;;;;;;;;;;;21.51;44.05;95731.06;10494595;28;4511;-68
2023/05/29 06:34:18;;;;;;;;;;;;;;;21.51;44.30;95732.91;10492987;28;2040;-67
2023/05/29 06:39:19;;;;;;;;;;;;;;;21.51;44.03;95732.91;10488620;28;1949;-66
2023/05/29 06:44:20;;;;;;;;;;;;;;;21.50;44.30;95742.66;10493614;28;2142;-66
2023/05/29 06:49:20;;;;;;;;;;;;;;;21.51;44.39;95743.44;10492724;28;1942;-65
2023/05/29 06:54:20;;;;;;;;;;;;;;;21.52;44.15;95745.00;10489141;28;2278;-65
2023/05/29 06:59:20;;;;;;;;;;;;;;;21.51;44.53;95749.50;10491040;28;1938;-68
2023/05/29 07:04:21;;;;;;;;;;;;;;;21.52;44.24;95752.91;10489145;28;1994;-69
2023/05/29 07:09:21;;;;;;;;;;;;;;;21.52;44.19;95758.19;10491052;28;1906;-68
2023/05/29 07:14:21;;;;;;;;;;;;;;;21.51;44.46;95762.69;10492460;28;1950;-65
2023/05/29 07:19:22;;;;;;;;;;;;;;;21.51;44.54;95759.25;10490018;28;1926;-66
2023/05/29 07:24:22;;;;;;;;;;;;;;;21.52;44.47;95768.75;10486758;28;1974;-66
2023/05/29 07:29:23;;;;;;;;;;;;;;;21.51;44.46;95769.81;10487274;28;4298;-66
2023/05/29 07:34:23;;;;;;;;;;;;;;;21.51;44.47;95773.25;10489674;28;1916;-66
2023/05/29 07:39:24;;;;;;;;;;;;;;;21.51;44.50;95775.09;10487318;28;1991;-66
2023/05/29 07:44:24;;;;;;;;;;;;;;;21.50;44.30;95773.50;10487572;28;2184;-65
2023/05/29 07:49:25;;;;;;;;;;;;;;;21.51;44.55;95775.88;10495898;28;2248;-67
2023/05/29 07:54:25;;;;;;;;;;;;;;;21.52;44.41;95779.28;10492193;28;1976;-67
2023/05/29 07:59:26;;;;;;;;;;;;;;;21.52;44.68;95781.94;10482516;28;1910;-67
2023/05/29 08:04:26;;;;;;;;;;;;;;;21.53;44.75;95783.50;10488121;28;1902;-67
2023/05/29 08:09:26;;;;;;;;;;;;;;;21.53;44.64;95780.88;10490546;28;1922;-67
2023/05/29 08:14:26;;;;;;;;;;;;;;;21.53;44.65;95786.94;10491399;28;1976;-67
2023/05/29 08:19:27;;;;;;;;;;;;;;;21.53;44.75;95783.50;10486047;28;1973;-67
2023/05/29 08:24:27;;;;;;;;;;;;;;;21.55;44.79;95784.03;10490183;28;2057;-67
2023/05/29 08:29:27;;;;;;;;;;;;;;;21.57;44.84;95781.88;10486096;28;4427;-65
2023/05/29 08:34:28;;;;;;;;;;;;;;;21.58;45.16;95786.09;10488672;28;2019;-64
2023/05/29 08:39:28;;;;;;;;;;;;;;;21.59;45.54;95777.13;10488505;28;1958;-71
2023/05/29 08:44:29;;;;;;;;;;;;;;;21.61;45.35;95782.91;10491946;28;2244;-67
2023/05/29 08:49:32;;;;;;;;;;;;;;;21.61;45.71;95781.06;10484996;28;1925;-66
2023/05/29 08:54:32;;;;;;;;;;;;;;;21.64;45.69;95779.69;10488994;28;1839;-67
2023/05/29 08:59:32;;;;;;;;;;;;;;;21.66;45.89;95783.63;10486603;28;1950;-68
2023/05/29 09:04:33;;;;;;;;;;;;;;;21.69;45.43;95792.84;10487614;28;1915;-71
2023/05/29 09:09:34;;;;;;;;;;;;;;;21.71;45.06;95793.34;10483772;28;2269;-67
2023/05/29 09:14:38;;;;;;;;;;;;;;;21.71;45.48;95785.44;10486268;28;1930;-64
2023/05/29 09:19:40;;;;;;;;;;;;;;;21.70;45.41;95794.44;10487143;28;1972;-64
2023/05/29 09:24:40;;;;;;;;;;;;;;;21.62;43.31;95787.09;10488140;28;2037;-65
2023/05/29 09:29:41;;;;;;;;;;;;;;;21.57;42.78;95787.16;10485282;28;4411;-64
2023/05/29 09:34:41;;;;;;;;;;;;;;;21.51;42.48;95781.16;10484276;28;1927;-63
2023/05/29 09:39:41;;;;;;;;;;;;;;;21.45;41.93;95776.22;10483444;28;2363;-63
2023/05/29 09:55:17;;;;;;;;;;;;;;;21.35;41.27;95792.13;11869128;23;2327;-65
2023/05/29 10:00:18;;;;;;;;;;;;;;;21.32;40.46;95785.53;10378622;28;1858;-64
2023/05/29 10:05:18;;;;;;;;;;;;;;;21.36;39.19;95791.03;10466477;23;2416;-63
2023/05/29 10:10:18;;;;;;;;;;;;;;;21.31;38.86;95791.88;10331990;23;2093;-62
2023/05/29 10:15:19;;;;;;;;;;;;;;;21.25;38.73;95792.19;10503770;22;2196;-63
2023/05/29 10:20:20;;;;;;;;;;;;;;;21.21;38.75;95780.63;10290664;28;2116;-64
2023/05/29 10:25:23;;;;;;;;;;;;;;;21.20;38.40;95769.31;10289145;28;2018;-64
2023/05/29 10:30:28;;;;;;;;;;;;;;;21.20;38.30;95768.50;10287517;28;2001;-64
2023/05/29 10:35:49;;;;;;;;;;;;;;;21.22;38.92;95772.44;10284037;28;1859;-64
2023/05/29 10:40:49;;;;;;;;;;;;;;;21.25;39.12;95771.88;10286096;28;2056;-64
2023/05/29 10:45:50;;;;;;;;;;;;;;;21.31;38.79;95772.66;10300059;28;1952;-64
2023/05/29 10:50:50;;;;;;;;;;;;;;;21.35;39.02;95765.75;10306667;28;1937;-64
2023/05/29 10:55:50;;;;;;;;;;;;;;;21.38;39.50;95760.69;10291533;28;1826;-63
2023/05/29 11:00:54;;;;;;;;;;;;;;;21.44;40.44;95771.97;10306396;28;2027;-60
2023/05/29 11:05:58;;;;;;;;;;;;;;;21.50;40.93;95761.13;10303993;28;2137;-60
2023/05/29 11:10:58;;;;;;;;;;;;;;;21.54;40.64;95770.03;10303739;28;1902;-60
2023/05/29 11:16:04;;;;;;;;;;;;;;;21.57;40.43;95763.44;10306257;28;2041;-60
2023/05/29 11:21:06;;;;;;;;;;;;;;;21.62;40.28;95760.72;10303562;28;1902;-62
2023/05/29 11:26:06;;;;;;;;;;;;;;;21.61;40.40;95765.22;10303628;28;2001;-62
2023/05/29 11:31:08;;;;;;;;;;;;;;;21.61;40.63;95769.72;10291587;28;4544;-62
2023/05/29 11:36:08;;;;;;;;;;;;;;;21.63;40.86;95773.66;10308424;28;2356;-61
2023/05/29 11:41:08;;;;;;;;;;;;;;;21.64;41.30;95769.94;10304637;28;1966;-58
2023/05/29 11:46:18;;;;;;;;;;;;;;;21.67;40.89;95768.59;10306021;28;1871;-60
2023/05/29 11:51:18;;;;;;;;;;;;;;;21.68;41.37;95770.16;10299758;28;1973;-61
2023/05/29 11:56:19;;;;;;;;;;;;;;;21.69;41.26;95769.09;10302234;28;2019;-60
2023/05/29 12:01:19;;;;;;;;;;;;;;;21.69;40.98;95766.47;10303910;28;1835;-61
2023/05/29 12:06:33;;;;;;;;;;;;;;;21.70;41.10;95768.81;10311100;28;1890;-64
2023/05/29 12:11:34;;;;;;;;;;;;;;;21.71;41.85;95762.50;10302837;28;1952;-64
2023/05/29 12:16:35;;;;;;;;;;;;;;;21.73;42.39;95760.34;10302078;28;2003;-62
2023/05/29 12:21:36;;;;;;;;;;;;;;;21.74;42.69;95766.41;10291594;28;1910;-64
2023/05/29 12:26:37;;;;;;;;;;;;;;;21.76;42.71;95757.13;10307321;28;4660;-64
2023/05/29 12:31:39;;;;;;;;;;;;;;;21.78;42.96;95748.97;10306878;28;2587;-64
2023/05/29 12:36:42;;;;;;;;;;;;;;;21.77;43.23;95757.94;10305192;28;1930;-64
2023/05/29 12:41:43;;;;;;;;;;;;;;;21.79;43.34;95753.16;10306485;28;1890;-64
2023/05/29 12:46:43;;;;;;;;;;;;;;;21.81;43.56;95758.94;10303563;28;1879;-64
2023/05/29 12:51:44;;;;;;;;;;;;;;;21.81;43.55;95762.41;10306097;28;2089;-64
2023/05/29 12:56:46;;;;;;;;;;;;;;;21.82;43.71;95755.28;10311212;28;1898;-64
2023/05/29 13:01:46;;;;;;;;;;;;;;;21.82;43.86;95760.56;10305961;28;1958;-64
2023/05/29 13:06:46;;;;;;;;;;;;;;;21.84;43.93;95753.16;10305294;28;1926;-64
2023/05/29 13:11:46;;;;;;;;;;;;;;;21.84;44.02;95750.50;10300084;28;1914;-64
2023/05/29 13:16:47;;;;;;;;;;;;;;;21.86;44.10;95753.66;10302972;28;1953;-64
2023/05/29 13:21:48;;;;;;;;;;;;;;;21.86;44.22;95751.00;10292917;28;1916;-64
2023/05/29 13:26:50;;;;;;;;;;;;;;;21.86;44.30;95751.00;10302179;28;2260;-64
2023/05/29 13:31:50;;;;;;;;;;;;;;;21.87;44.75;95747.28;10303604;28;1965;-64
2023/05/29 13:36:50;;;;;;;;;;;;;;;21.88;44.43;95753.38;10305984;28;1893;-64
2023/05/29 13:41:51;;;;;;;;;;;;;;;21.89;44.79;95739.88;10304112;28;1995;-64
2023/05/29 13:46:51;;;;;;;;;;;;;;;21.88;44.72;95735.69;10296502;28;1903;-64
2023/05/29 13:51:51;;;;;;;;;;;;;;;21.89;44.49;95726.69;10299250;28;1956;-64
2023/05/29 13:56:51;;;;;;;;;;;;;;;21.89;44.71;95721.41;10295394;28;1879;-66
2023/05/29 14:01:52;;;;;;;;;;;;;;;21.91;45.14;95726.44;10298098;28;1884;-63
2023/05/29 14:06:52;;;;;;;;;;;;;;;21.92;45.11;95733.25;10302209;28;1863;-63
2023/05/29 14:11:55;;;;;;;;;;;;;;;21.92;45.18;95718.22;10301792;28;1961;-63
2023/05/29 14:16:56;;;;;;;;;;;;;;;21.93;45.41;95719.00;10304662;28;1929;-63
2023/05/29 14:21:56;;;;;;;;;;;;;;;21.94;45.75;95721.34;10305502;28;1831;-63
2023/05/29 14:26:56;;;;;;;;;;;;;;;21.96;45.61;95718.44;10307097;28;4351;-64
2023/05/29 14:31:57;;;;;;;;;;;;;;;21.97;45.91;95715.50;10314448;28;1887;-63
2023/05/29 14:36:57;;;;;;;;;;;;;;;21.96;46.12;95716.59;10314924;28;1515;-64
2023/05/29 14:41:57;;;;;;;;;;;;;;;21.98;46.27;95713.66;10299412;28;1528;-64
2023/05/29 14:46:57;;;;;;;;;;;;;;;21.97;46.26;95720.78;10316020;28;1436;-64
2023/05/29 14:51:58;;;;;;;;;;;;;;;21.99;46.46;95715.25;10317284;28;1914;-64
2023/05/29 14:56:58;;;;;;;;;;;;;;;21.99;46.38;95709.97;10315831;28;1617;-64
2023/05/29 15:01:59;;;;;;;;;;;;;;;21.99;46.44;95713.38;10309935;28;1494;-64
2023/05/29 15:07:00;;;;;;;;;;;;;;;21.99;46.40;95702.03;10310091;28;1546;-64
2023/05/29 15:12:01;;;;;;;;;;;;;;;21.99;46.17;95697.53;10304118;28;1981;-64
2023/05/29 15:17:01;;;;;;;;;;;;;;;22.01;46.31;95698.03;10298808;28;1517;-64
2023/05/29 15:22:01;;;;;;;;;;;;;;;22.01;46.53;95697.25;10308135;28;2618;-65
2023/05/29 15:27:02;;;;;;;;;;;;;;;22.01;46.30;95695.38;10306721;28;4460;-64
2023/05/29 15:32:02;;;;;;;;;;;;;;;22.01;46.17;95695.38;10305110;28;1887;-63
2023/05/29 15:37:03;;;;;;;;;;;;;;;22.01;46.21;95700.66;10317251;28;1494;-62
2023/05/29 15:42:03;;;;;;;;;;;;;;;22.01;46.53;95689.34;10309305;28;1618;-63
2023/05/29 15:47:04;;;;;;;;;;;;;;;22.02;46.38;95685.63;10315846;28;1506;-63
2023/05/29 15:52:04;;;;;;;;;;;;;;;22.04;46.02;95688.75;10312294;28;1934;-63
2023/05/29 15:57:05;;;;;;;;;;;;;;;22.05;46.14;95685.06;10306344;28;1628;-63
2023/05/29 16:02:06;;;;;;;;;;;;;;;22.03;46.35;95681.94;10301166;28;1544;-63
2023/05/29 16:07:06;;;;;;;;;;;;;;;22.03;46.47;95692.47;10310798;28;1503;-63
2023/05/29 16:12:09;;;;;;;;;;;;;;;22.03;46.28;95681.94;10306066;28;1933;-60
2023/05/29 16:17:09;;;;;;;;;;;;;;;22.03;46.43;95690.59;10315987;28;2255;-63
2023/05/29 16:22:09;;;;;;;;;;;;;;;22.02;46.33;95689.06;10309261;28;1452;-62
2023/05/29 16:27:10;;;;;;;;;;;;;;;22.03;46.07;95698.53;10308569;28;4481;-62
2023/05/29 16:32:10;;;;;;;;;;;;;;;22.01;46.23;95695.38;10306928;28;1895;-64
2023/05/29 16:37:11;;;;;;;;;;;;;;;22.02;46.24;95691.69;10313907;28;1406;-64
2023/05/29 16:42:11;;;;;;;;;;;;;;;22.03;46.21;95697.75;10314899;28;1604;-64
2023/05/29 16:47:12;;;;;;;;;;;;;;;22.02;46.13;95691.69;10308063;28;1448;-64
2023/05/29 16:52:14;;;;;;;;;;;;;;;22.02;46.43;95696.97;10311797;28;1989;-65
2023/05/29 16:57:14;;;;;;;;;;;;;;;22.02;46.37;95691.69;10310447;28;1324;-64
2023/05/29 17:02:14;;;;;;;;;;;;;;;22.02;46.24;95699.59;10309133;28;1464;-65
2023/05/29 17:07:15;;;;;;;;;;;;;;;22.02;46.20;95696.19;10320373;28;1765;-64
2023/05/29 17:12:15;;;;;;;;;;;;;;;22.02;45.98;95702.25;10308278;28;2597;-64
2023/05/29 17:17:15;;;;;;;;;;;;;;;22.04;46.00;95696.69;10316280;28;1489;-66
2023/05/29 17:22:16;;;;;;;;;;;;;;;22.03;46.01;95698.53;10316478;28;1495;-65
2023/05/29 17:27:16;;;;;;;;;;;;;;;22.03;45.98;95695.13;10307023;28;4389;-67
2023/05/29 17:32:16;;;;;;;;;;;;;;;22.04;46.21;95701.97;10307317;28;1914;-66
2023/05/29 17:37:17;;;;;;;;;;;;;;;22.10;46.28;95698.97;10314574;28;1520;-66
2023/05/29 17:42:18;;;;;;;;;;;;;;;22.10;46.18;95701.63;10304755;28;1509;-67
2023/05/29 17:47:18;;;;;;;;;;;;;;;22.09;46.21;95704.53;10305311;28;1428;-67
2023/05/29 17:52:19;;;;;;;;;;;;;;;22.09;46.15;95702.66;10287054;28;1891;-65
2023/05/29 17:57:19;;;;;;;;;;;;;;;22.10;45.86;95714.81;10307499;28;1439;-68
2023/05/29 18:02:20;;;;;;;;;;;;;;;22.07;45.40;95714.59;10304108;28;1587;-67
2023/05/29 18:07:20;;;;;;;;;;;;;;;22.05;45.18;95717.50;10306421;28;2421;-62
2023/05/29 18:12:20;;;;;;;;;;;;;;;22.04;45.20;95717.78;10307476;28;1972;-68
2023/05/29 18:17:20;;;;;;;;;;;;;;;22.02;44.83;95717.28;10305890;28;1522;-68
2023/05/29 18:22:21;;;;;;;;;;;;;;;22.02;44.91;95718.09;10305334;28;1461;-67
2023/05/29 18:27:21;;;;;;;;;;;;;;;22.01;44.74;95721.03;10305302;28;1445;-67
2023/05/29 18:32:21;;;;;;;;;;;;;;;22.00;44.52;95722.06;10293968;28;1910;-69
2023/05/29 18:37:22;;;;;;;;;;;;;;;21.98;44.48;95721.56;10301743;28;1874;-68
2023/05/29 18:42:22;;;;;;;;;;;;;;;21.99;44.52;95726.56;10287203;28;1866;-68
2023/05/29 18:47:22;;;;;;;;;;;;;;;21.97;44.21;95725.28;10305487;28;1894;-68
2023/05/29 18:52:23;;;;;;;;;;;;;;;21.96;44.32;95724.50;10302291;28;1911;-68
2023/05/29 18:57:23;;;;;;;;;;;;;;;21.95;44.05;95722.91;10301645;28;1974;-68
2023/05/29 19:02:24;;;;;;;;;;;;;;;21.94;44.14;95726.63;10303379;28;2379;-67
2023/05/29 19:07:24;;;;;;;;;;;;;;;21.93;43.93;95735.59;10304315;28;1910;-67
2023/05/29 19:12:24;;;;;;;;;;;;;;;21.93;43.80;95740.88;10305398;28;1965;-68
2023/05/29 19:17:25;;;;;;;;;;;;;;;21.93;43.43;95743.53;10305602;28;1879;-67
2023/05/29 19:22:25;;;;;;;;;;;;;;;21.92;43.69;95738.53;10309157;28;1804;-67
2023/05/29 19:27:26;;;;;;;;;;;;;;;21.92;43.55;95746.44;10303433;28;4498;-66
2023/05/29 19:32:27;;;;;;;;;;;;;;;21.92;43.52;95752.53;10310428;28;1953;-66
2023/05/29 19:37:27;;;;;;;;;;;;;;;21.91;43.79;95766.78;10305389;28;1910;-66
2023/05/29 19:42:28;;;;;;;;;;;;;;;21.92;43.42;95764.94;10306554;28;1894;-61
2023/05/29 19:47:28;;;;;;;;;;;;;;;21.91;43.49;95766.00;10303931;28;2136;-62
2023/05/29 19:52:28;;;;;;;;;;;;;;;21.91;43.55;95776.56;10308952;28;1956;-63
2023/05/29 19:57:28;;;;;;;;;;;;;;;21.92;43.44;95780.75;10296105;28;1867;-62
2023/05/29 20:02:32;;;;;;;;;;;;;;;21.91;43.42;95787.88;10309322;28;2315;-66
2023/05/29 20:07:33;;;;;;;;;;;;;;;21.93;43.72;95798.19;10305918;28;1905;-66
2023/05/29 20:12:33;;;;;;;;;;;;;;;21.94;44.16;95805.81;10307299;28;1883;-66
2023/05/29 20:17:33;;;;;;;;;;;;;;;21.94;44.55;95795.25;10304093;28;1859;-66
2023/05/29 20:22:34;;;;;;;;;;;;;;;21.95;44.76;95794.16;10303785;28;1885;-66
2023/05/29 20:27:35;;;;;;;;;;;;;;;21.96;44.89;95798.41;10302461;28;4386;-66
2023/05/29 20:32:38;;;;;;;;;;;;;;;21.98;45.10;95803.38;10304458;28;1910;-67
2023/05/29 20:37:40;;;;;;;;;;;;;;;21.99;45.12;95810.25;10306428;28;1820;-66
2023/05/29 20:42:42;;;;;;;;;;;;;;;21.97;45.10;95807.88;10301777;28;1909;-68
2023/05/29 20:47:42;;;;;;;;;;;;;;;21.95;44.85;95802.09;10306901;28;2081;-66
2023/05/29 20:52:43;;;;;;;;;;;;;;;21.97;44.87;95812.38;10296889;28;1898;-66
2023/05/29 20:57:43;;;;;;;;;;;;;;;21.97;44.62;95815.03;10300655;28;2265;-66
2023/05/29 21:02:43;;;;;;;;;;;;;;;21.97;44.98;95818.44;10300298;28;2397;-66
2023/05/29 21:07:43;;;;;;;;;;;;;;;21.95;44.78;95820.56;10300994;28;2275;-66
2023/05/29 21:12:44;;;;;;;;;;;;;;;21.96;44.73;95821.34;10303425;28;1997;-66
2023/05/29 21:17:44;;;;;;;;;;;;;;;21.96;44.73;95818.72;10304961;28;1834;-66
2023/05/29 21:22:45;;;;;;;;;;;;;;;21.95;44.38;95812.66;10302421;28;1925;-66
2023/05/29 21:27:45;;;;;;;;;;;;;;;21.94;44.12;95811.09;10301635;28;4516;-66
2023/05/29 21:32:45;;;;;;;;;;;;;;;21.93;44.09;95814.78;10298205;28;1957;-66
2023/05/29 21:37:46;;;;;;;;;;;;;;;21.93;44.07;95824.56;10306394;28;1882;-66
2023/05/29 21:42:46;;;;;;;;;;;;;;;21.93;43.99;95824.56;10285368;28;1907;-65
2023/05/29 21:47:48;;;;;;;;;;;;;;;21.91;43.80;95811.63;10302546;28;1984;-66
2023/05/29 21:52:48;;;;;;;;;;;;;;;21.91;43.92;95810.88;10302170;28;2647;-66
2023/05/29 21:57:48;;;;;;;;;;;;;;;21.91;43.89;95818.78;10305067;28;1863;-65
2023/05/29 22:02:49;;;;;;;;;;;;;;;21.88;43.58;95812.97;10300529;28;1906;-65
2023/05/29 22:07:51;;;;;;;;;;;;;;;21.88;43.83;95815.63;10305166;28;1881;-66
2023/05/29 22:12:52;;;;;;;;;;;;;;;21.88;43.58;95812.22;10297748;28;1946;-65
2023/05/29 22:17:52;;;;;;;;;;;;;;;21.87;43.05;95805.34;10301623;28;2093;-66
2023/05/29 22:22:52;;;;;;;;;;;;;;;21.86;43.30;95801.16;10305393;28;1827;-66
2023/05/29 22:27:53;;;;;;;;;;;;;;;21.85;43.18;95796.94;10302363;28;1897;-66
2023/05/29 22:32:53;;;;;;;;;;;;;;;21.84;43.09;95793.50;10307085;28;2074;-66
2023/05/29 22:37:53;;;;;;;;;;;;;;;21.84;42.87;95787.44;10293686;28;1885;-65
2023/05/29 22:42:54;;;;;;;;;;;;;;;21.83;43.21;95791.94;10298914;28;1842;-66
2023/05/29 22:47:54;;;;;;;;;;;;;;;21.83;43.26;95777.94;10310328;28;2735;-66
2023/05/29 22:52:56;;;;;;;;;;;;;;;21.84;43.11;95779.53;10300334;28;1927;-66
2023/05/29 22:57:56;;;;;;;;;;;;;;;21.84;43.26;95782.19;10310000;28;1879;-66
2023/05/29 23:02:57;;;;;;;;;;;;;;;21.83;43.18;95777.94;10309674;28;1893;-66
2023/05/29 23:07:57;;;;;;;;;;;;;;;21.84;43.48;95767.09;10307650;28;1938;-66
2023/05/29 23:12:58;;;;;;;;;;;;;;;21.83;43.14;95768.19;10314176;28;1949;-66
2023/05/29 23:17:58;;;;;;;;;;;;;;;21.83;42.73;95770.81;10310213;28;1911;-66
2023/05/29 23:22:58;;;;;;;;;;;;;;;21.80;42.21;95776.63;10306405;28;2015;-66
2023/05/29 23:27:59;;;;;;;;;;;;;;;21.79;42.24;95766.34;10304008;28;1962;-66
2023/05/29 23:32:59;;;;;;;;;;;;;;;21.78;42.17;95770.06;10307621;28;1956;-66
2023/05/29 23:38:00;;;;;;;;;;;;;;;21.75;41.94;95783.81;10309515;28;1918;-65
2023/05/29 23:43:00;;;;;;;;;;;;;;;21.75;41.79;95775.91;10305117;28;1952;-66
2023/05/29 23:48:00;;;;;;;;;;;;;;;21.74;41.69;95785.66;10307051;28;2212;-66
2023/05/29 23:53:00;;;;;;;;;;;;;;;21.74;41.91;95780.38;10309636;28;1914;-66
2023/05/29 23:58:01;;;;;;;;;;;;;;;21.75;42.09;95781.97;10306906;28;1857;-65
